sensor_id;sensor_type;location;lat;lon;timestamp;temperature;humidity
11840;DHT22;5979;50.800;4.904;2024-02-26T00:01:27;7.00;99.90
11840;DHT22;5979;50.800;4.904;2024-02-26T00:03:52;7.00;99.90
11840;DHT22;5979;50.800;4.904;2024-02-26T00:06:19;7.00;99.90
11840;DHT22;5979;50.800;4.904;2024-02-26T00:08:45;7.00;99.90
11840;DHT22;5979;50.800;4.904;2024-02-26T00:11:10;7.00;99.90
11840;DHT22;5979;50.800;4.904;2024-02-26T00:13:36;7.00;99.90
11840;DHT22;5979;50.800;4.904;2024-02-26T00:16:03;6.90;99.90
11840;DHT22;5979;50.800;4.904;2024-02-26T00:18:29;6.90;99.90
11840;DHT22;5979;50.800;4.904;2024-02-26T00:20:55;6.90;99.90
11840;DHT22;5979;50.800;4.904;2024-02-26T00:23:20;6.90;99.90
11840;DHT22;5979;50.800;4.904;2024-02-26T00:25:46;6.90;99.90
11840;DHT22;5979;50.800;4.904;2024-02-26T00:28:12;6.90;99.90
11840;DHT22;5979;50.800;4.904;2024-02-26T00:30:39;6.80;99.90
11840;DHT22;5979;50.800;4.904;2024-02-26T00:33:04;6.80;99.90
11840;DHT22;5979;50.800;4.904;2024-02-26T00:35:30;6.90;99.90
11840;DHT22;5979;50.800;4.904;2024-02-26T00:37:55;6.80;99.90
11840;DHT22;5979;50.800;4.904;2024-02-26T00:40:21;6.80;99.90
11840;DHT22;5979;50.800;4.904;2024-02-26T00:42:47;6.80;99.90
11840;DHT22;5979;50.800;4.904;2024-02-26T00:45:13;6.80;99.90
11840;DHT22;5979;50.800;4.904;2024-02-26T00:47:39;6.70;99.90
11840;DHT22;5979;50.800;4.904;2024-02-26T00:50:07;6.70;99.90
11840;DHT22;5979;50.800;4.904;2024-02-26T00:52:34;6.70;99.90
11840;DHT22;5979;50.800;4.904;2024-02-26T00:55:00;6.70;99.90
11840;DHT22;5979;50.800;4.904;2024-02-26T00:57:25;6.70;99.90
11840;DHT22;5979;50.800;4.904;2024-02-26T00:59:51;6.70;99.90
11840;DHT22;5979;50.800;4.904;2024-02-26T01:02:17;6.70;99.90
11840;DHT22;5979;50.800;4.904;2024-02-26T01:04:43;6.70;99.90
11840;DHT22;5979;50.800;4.904;2024-02-26T01:07:09;6.70;99.90
11840;DHT22;5979;50.800;4.904;2024-02-26T01:09:35;6.70;99.90
11840;DHT22;5979;50.800;4.904;2024-02-26T01:12:00;6.60;99.90
11840;DHT22;5979;50.800;4.904;2024-02-26T01:14:28;6.60;99.90
11840;DHT22;5979;50.800;4.904;2024-02-26T01:16:53;6.60;99.90
11840;DHT22;5979;50.800;4.904;2024-02-26T01:19:19;6.60;99.90
11840;DHT22;5979;50.800;4.904;2024-02-26T01:21:45;6.60;99.90
11840;DHT22;5979;50.800;4.904;2024-02-26T01:24:10;6.50;99.90
11840;DHT22;5979;50.800;4.904;2024-02-26T01:26:36;6.60;99.90
11840;DHT22;5979;50.800;4.904;2024-02-26T01:29:02;6.50;99.90
11840;DHT22;5979;50.800;4.904;2024-02-26T01:31:27;6.50;99.90
11840;DHT22;5979;50.800;4.904;2024-02-26T01:33:53;6.50;99.90
11840;DHT22;5979;50.800;4.904;2024-02-26T01:36:19;6.50;99.90
11840;DHT22;5979;50.800;4.904;2024-02-26T01:38:46;6.50;99.90
11840;DHT22;5979;50.800;4.904;2024-02-26T01:41:13;6.50;99.90
11840;DHT22;5979;50.800;4.904;2024-02-26T01:43:39;6.50;99.90
11840;DHT22;5979;50.800;4.904;2024-02-26T01:46:05;6.50;99.90
11840;DHT22;5979;50.800;4.904;2024-02-26T01:48:31;6.50;99.90
11840;DHT22;5979;50.800;4.904;2024-02-26T01:50:57;6.50;99.90
11840;DHT22;5979;50.800;4.904;2024-02-26T01:53:23;6.40;99.90
11840;DHT22;5979;50.800;4.904;2024-02-26T01:55:50;6.50;99.90
11840;DHT22;5979;50.800;4.904;2024-02-26T01:58:16;6.50;99.90
11840;DHT22;5979;50.800;4.904;2024-02-26T02:00:42;6.50;99.90
11840;DHT22;5979;50.800;4.904;2024-02-26T02:03:08;6.50;99.90
11840;DHT22;5979;50.800;4.904;2024-02-26T02:05:34;6.50;99.90
11840;DHT22;5979;50.800;4.904;2024-02-26T02:08:07;6.50;99.90
11840;DHT22;5979;50.800;4.904;2024-02-26T02:10:33;6.40;99.90
11840;DHT22;5979;50.800;4.904;2024-02-26T02:12:59;6.40;99.90
11840;DHT22;5979;50.800;4.904;2024-02-26T02:15:25;6.40;99.90
11840;DHT22;5979;50.800;4.904;2024-02-26T02:17:50;6.50;99.90
11840;DHT22;5979;50.800;4.904;2024-02-26T02:20:17;6.50;99.90
11840;DHT22;5979;50.800;4.904;2024-02-26T02:22:47;6.50;99.90
11840;DHT22;5979;50.800;4.904;2024-02-26T02:25:12;6.40;99.90
11840;DHT22;5979;50.800;4.904;2024-02-26T02:27:39;6.40;99.90
11840;DHT22;5979;50.800;4.904;2024-02-26T02:30:07;6.40;99.90
11840;DHT22;5979;50.800;4.904;2024-02-26T02:32:33;6.40;99.90
11840;DHT22;5979;50.800;4.904;2024-02-26T02:34:59;6.40;99.90
11840;DHT22;5979;50.800;4.904;2024-02-26T02:37:24;6.40;99.90
11840;DHT22;5979;50.800;4.904;2024-02-26T02:39:50;6.40;99.90
11840;DHT22;5979;50.800;4.904;2024-02-26T02:42:16;6.40;99.90
11840;DHT22;5979;50.800;4.904;2024-02-26T02:44:41;6.40;99.90
11840;DHT22;5979;50.800;4.904;2024-02-26T02:47:07;6.40;99.90
11840;DHT22;5979;50.800;4.904;2024-02-26T02:49:32;6.40;99.90
11840;DHT22;5979;50.800;4.904;2024-02-26T02:51:58;6.40;99.90
11840;DHT22;5979;50.800;4.904;2024-02-26T02:54:24;6.40;99.90
11840;DHT22;5979;50.800;4.904;2024-02-26T02:56:49;6.40;99.90
11840;DHT22;5979;50.800;4.904;2024-02-26T02:59:15;6.40;99.90
11840;DHT22;5979;50.800;4.904;2024-02-26T03:01:41;6.40;99.90
11840;DHT22;5979;50.800;4.904;2024-02-26T03:04:06;6.40;99.90
11840;DHT22;5979;50.800;4.904;2024-02-26T03:06:32;6.40;99.90
11840;DHT22;5979;50.800;4.904;2024-02-26T03:08:57;6.40;99.90
11840;DHT22;5979;50.800;4.904;2024-02-26T03:11:23;6.40;99.90
11840;DHT22;5979;50.800;4.904;2024-02-26T03:13:49;6.40;99.90
11840;DHT22;5979;50.800;4.904;2024-02-26T03:16:14;6.40;99.90
11840;DHT22;5979;50.800;4.904;2024-02-26T03:18:42;6.40;99.90
11840;DHT22;5979;50.800;4.904;2024-02-26T03:21:07;6.40;99.90
11840;DHT22;5979;50.800;4.904;2024-02-26T03:23:33;6.40;99.90
11840;DHT22;5979;50.800;4.904;2024-02-26T03:26:03;6.40;99.90
11840;DHT22;5979;50.800;4.904;2024-02-26T03:28:29;6.40;99.90
11840;DHT22;5979;50.800;4.904;2024-02-26T03:30:56;6.40;99.90
11840;DHT22;5979;50.800;4.904;2024-02-26T03:33:21;6.40;99.90
11840;DHT22;5979;50.800;4.904;2024-02-26T03:35:47;6.40;99.90
11840;DHT22;5979;50.800;4.904;2024-02-26T03:38:13;6.40;99.90
11840;DHT22;5979;50.800;4.904;2024-02-26T03:40:39;6.40;99.90
11840;DHT22;5979;50.800;4.904;2024-02-26T03:43:04;6.40;99.90
11840;DHT22;5979;50.800;4.904;2024-02-26T03:45:32;6.40;99.90
11840;DHT22;5979;50.800;4.904;2024-02-26T03:47:58;6.40;99.90
11840;DHT22;5979;50.800;4.904;2024-02-26T03:50:24;6.40;99.90
11840;DHT22;5979;50.800;4.904;2024-02-26T03:52:50;6.40;99.90
11840;DHT22;5979;50.800;4.904;2024-02-26T03:55:15;6.40;99.90
11840;DHT22;5979;50.800;4.904;2024-02-26T03:57:43;6.30;99.90
11840;DHT22;5979;50.800;4.904;2024-02-26T04:00:09;6.30;99.90
11840;DHT22;5979;50.800;4.904;2024-02-26T04:02:35;6.40;99.90
11840;DHT22;5979;50.800;4.904;2024-02-26T04:05:01;6.30;99.90
11840;DHT22;5979;50.800;4.904;2024-02-26T04:07:26;6.30;99.90
11840;DHT22;5979;50.800;4.904;2024-02-26T04:09:52;6.30;99.90
11840;DHT22;5979;50.800;4.904;2024-02-26T04:12:17;6.30;99.90
11840;DHT22;5979;50.800;4.904;2024-02-26T04:14:44;6.30;99.90
11840;DHT22;5979;50.800;4.904;2024-02-26T04:17:10;6.30;99.90
11840;DHT22;5979;50.800;4.904;2024-02-26T04:19:36;6.30;99.90
11840;DHT22;5979;50.800;4.904;2024-02-26T04:22:02;6.30;99.90
11840;DHT22;5979;50.800;4.904;2024-02-26T04:24:27;6.40;99.90
11840;DHT22;5979;50.800;4.904;2024-02-26T04:26:53;6.30;99.90
11840;DHT22;5979;50.800;4.904;2024-02-26T04:29:19;6.30;99.90
11840;DHT22;5979;50.800;4.904;2024-02-26T04:31:44;6.30;99.90
11840;DHT22;5979;50.800;4.904;2024-02-26T04:34:12;6.30;99.90
11840;DHT22;5979;50.800;4.904;2024-02-26T04:36:37;6.30;99.90
11840;DHT22;5979;50.800;4.904;2024-02-26T04:39:03;6.30;99.90
11840;DHT22;5979;50.800;4.904;2024-02-26T04:41:29;6.30;99.90
11840;DHT22;5979;50.800;4.904;2024-02-26T04:43:54;6.30;99.90
11840;DHT22;5979;50.800;4.904;2024-02-26T04:46:20;6.30;99.90
11840;DHT22;5979;50.800;4.904;2024-02-26T04:48:47;6.30;99.90
11840;DHT22;5979;50.800;4.904;2024-02-26T04:51:13;6.30;99.90
11840;DHT22;5979;50.800;4.904;2024-02-26T04:53:38;6.30;99.90
11840;DHT22;5979;50.800;4.904;2024-02-26T04:56:04;6.30;99.90
11840;DHT22;5979;50.800;4.904;2024-02-26T04:58:30;6.30;99.90
11840;DHT22;5979;50.800;4.904;2024-02-26T05:00:56;6.30;99.90
11840;DHT22;5979;50.800;4.904;2024-02-26T05:03:21;6.30;99.90
11840;DHT22;5979;50.800;4.904;2024-02-26T05:05:47;6.30;99.90
11840;DHT22;5979;50.800;4.904;2024-02-26T05:08:13;6.20;99.90
11840;DHT22;5979;50.800;4.904;2024-02-26T05:10:38;6.20;99.90
11840;DHT22;5979;50.800;4.904;2024-02-26T05:13:06;6.30;99.90
11840;DHT22;5979;50.800;4.904;2024-02-26T05:15:32;6.30;99.90
11840;DHT22;5979;50.800;4.904;2024-02-26T05:17:58;6.30;99.90
11840;DHT22;5979;50.800;4.904;2024-02-26T05:20:23;6.20;99.90
11840;DHT22;5979;50.800;4.904;2024-02-26T05:22:49;6.20;99.90
11840;DHT22;5979;50.800;4.904;2024-02-26T05:25:16;6.20;99.90
11840;DHT22;5979;50.800;4.904;2024-02-26T05:27:43;6.10;99.90
11840;DHT22;5979;50.800;4.904;2024-02-26T05:30:09;6.10;99.90
11840;DHT22;5979;50.800;4.904;2024-02-26T05:32:35;6.10;99.90
11840;DHT22;5979;50.800;4.904;2024-02-26T05:35:01;6.20;99.90
11840;DHT22;5979;50.800;4.904;2024-02-26T05:37:28;6.10;99.90
11840;DHT22;5979;50.800;4.904;2024-02-26T05:39:54;6.20;99.90
11840;DHT22;5979;50.800;4.904;2024-02-26T05:42:19;6.20;99.90
11840;DHT22;5979;50.800;4.904;2024-02-26T05:44:45;6.10;99.90
11840;DHT22;5979;50.800;4.904;2024-02-26T05:47:11;6.20;99.90
11840;DHT22;5979;50.800;4.904;2024-02-26T05:49:36;6.20;99.90
11840;DHT22;5979;50.800;4.904;2024-02-26T05:52:02;6.20;99.90
11840;DHT22;5979;50.800;4.904;2024-02-26T05:54:28;6.20;99.90
11840;DHT22;5979;50.800;4.904;2024-02-26T05:56:53;6.20;99.90
11840;DHT22;5979;50.800;4.904;2024-02-26T05:59:19;6.10;99.90
11840;DHT22;5979;50.800;4.904;2024-02-26T06:01:45;6.10;99.90
11840;DHT22;5979;50.800;4.904;2024-02-26T06:04:10;6.10;99.90
11840;DHT22;5979;50.800;4.904;2024-02-26T06:06:37;6.10;99.90
11840;DHT22;5979;50.800;4.904;2024-02-26T06:09:03;6.10;99.90
11840;DHT22;5979;50.800;4.904;2024-02-26T06:11:30;6.10;99.90
11840;DHT22;5979;50.800;4.904;2024-02-26T06:13:56;6.00;99.90
11840;DHT22;5979;50.800;4.904;2024-02-26T06:16:22;6.10;99.90
11840;DHT22;5979;50.800;4.904;2024-02-26T06:18:47;6.10;99.90
11840;DHT22;5979;50.800;4.904;2024-02-26T06:21:13;6.00;99.90
11840;DHT22;5979;50.800;4.904;2024-02-26T06:23:39;6.00;99.90
11840;DHT22;5979;50.800;4.904;2024-02-26T06:26:05;6.00;99.90
11840;DHT22;5979;50.800;4.904;2024-02-26T06:28:31;6.00;99.90
11840;DHT22;5979;50.800;4.904;2024-02-26T06:30:59;6.00;99.90
11840;DHT22;5979;50.800;4.904;2024-02-26T06:33:25;6.00;99.90
11840;DHT22;5979;50.800;4.904;2024-02-26T06:35:50;6.00;99.90
11840;DHT22;5979;50.800;4.904;2024-02-26T06:38:16;6.10;99.90
11840;DHT22;5979;50.800;4.904;2024-02-26T06:40:43;6.00;99.90
11840;DHT22;5979;50.800;4.904;2024-02-26T06:43:09;6.00;99.90
11840;DHT22;5979;50.800;4.904;2024-02-26T06:45:35;6.00;99.90
11840;DHT22;5979;50.800;4.904;2024-02-26T06:48:00;6.00;99.90
11840;DHT22;5979;50.800;4.904;2024-02-26T06:50:26;6.00;99.90
11840;DHT22;5979;50.800;4.904;2024-02-26T06:52:52;6.00;99.90
11840;DHT22;5979;50.800;4.904;2024-02-26T06:55:17;5.90;99.90
11840;DHT22;5979;50.800;4.904;2024-02-26T06:57:43;5.90;99.90
11840;DHT22;5979;50.800;4.904;2024-02-26T07:00:09;5.90;99.90
11840;DHT22;5979;50.800;4.904;2024-02-26T07:02:40;5.90;99.90
11840;DHT22;5979;50.800;4.904;2024-02-26T07:05:06;5.90;99.90
11840;DHT22;5979;50.800;4.904;2024-02-26T07:07:32;5.90;99.90
11840;DHT22;5979;50.800;4.904;2024-02-26T07:09:57;5.90;99.90
11840;DHT22;5979;50.800;4.904;2024-02-26T07:12:23;5.90;99.90
11840;DHT22;5979;50.800;4.904;2024-02-26T07:14:49;5.90;99.90
11840;DHT22;5979;50.800;4.904;2024-02-26T07:17:15;5.90;99.90
11840;DHT22;5979;50.800;4.904;2024-02-26T07:19:42;5.90;99.90
11840;DHT22;5979;50.800;4.904;2024-02-26T07:22:07;5.90;99.90
11840;DHT22;5979;50.800;4.904;2024-02-26T07:24:33;5.90;99.90
11840;DHT22;5979;50.800;4.904;2024-02-26T07:26:59;6.00;99.90
11840;DHT22;5979;50.800;4.904;2024-02-26T07:29:24;6.00;99.90
11840;DHT22;5979;50.800;4.904;2024-02-26T07:31:50;5.90;99.90
11840;DHT22;5979;50.800;4.904;2024-02-26T07:34:15;5.90;99.90
11840;DHT22;5979;50.800;4.904;2024-02-26T07:36:41;6.00;99.90
11840;DHT22;5979;50.800;4.904;2024-02-26T07:39:07;6.00;99.90
11840;DHT22;5979;50.800;4.904;2024-02-26T07:41:32;6.00;99.90
11840;DHT22;5979;50.800;4.904;2024-02-26T07:43:58;5.90;99.90
11840;DHT22;5979;50.800;4.904;2024-02-26T07:46:24;5.90;99.90
11840;DHT22;5979;50.800;4.904;2024-02-26T07:48:49;5.90;99.90
11840;DHT22;5979;50.800;4.904;2024-02-26T07:51:15;5.90;99.90
11840;DHT22;5979;50.800;4.904;2024-02-26T07:53:41;6.00;99.90
11840;DHT22;5979;50.800;4.904;2024-02-26T07:56:06;5.90;99.90
11840;DHT22;5979;50.800;4.904;2024-02-26T07:58:33;5.90;99.90
11840;DHT22;5979;50.800;4.904;2024-02-26T08:00:59;5.90;99.90
11840;DHT22;5979;50.800;4.904;2024-02-26T08:03:24;5.90;99.90
11840;DHT22;5979;50.800;4.904;2024-02-26T08:05:51;5.90;99.90
11840;DHT22;5979;50.800;4.904;2024-02-26T08:08:17;5.90;99.90
11840;DHT22;5979;50.800;4.904;2024-02-26T08:10:42;5.90;99.90
11840;DHT22;5979;50.800;4.904;2024-02-26T08:13:08;5.90;99.90
11840;DHT22;5979;50.800;4.904;2024-02-26T08:15:35;6.00;99.90
11840;DHT22;5979;50.800;4.904;2024-02-26T08:18:03;6.00;99.90
11840;DHT22;5979;50.800;4.904;2024-02-26T08:20:32;5.90;99.90
11840;DHT22;5979;50.800;4.904;2024-02-26T08:22:57;6.00;99.90
11840;DHT22;5979;50.800;4.904;2024-02-26T08:25:24;6.00;99.90
11840;DHT22;5979;50.800;4.904;2024-02-26T08:27:50;6.00;99.90
11840;DHT22;5979;50.800;4.904;2024-02-26T08:30:16;5.90;99.90
11840;DHT22;5979;50.800;4.904;2024-02-26T08:32:43;6.00;99.90
11840;DHT22;5979;50.800;4.904;2024-02-26T08:35:09;5.90;99.90
11840;DHT22;5979;50.800;4.904;2024-02-26T08:37:35;6.00;99.90
11840;DHT22;5979;50.800;4.904;2024-02-26T08:40:01;6.00;99.90
11840;DHT22;5979;50.800;4.904;2024-02-26T08:42:26;6.00;99.90
11840;DHT22;5979;50.800;4.904;2024-02-26T08:44:52;6.00;99.90
11840;DHT22;5979;50.800;4.904;2024-02-26T08:47:20;6.00;99.90
11840;DHT22;5979;50.800;4.904;2024-02-26T08:49:46;6.00;99.90
11840;DHT22;5979;50.800;4.904;2024-02-26T08:52:11;6.00;99.90
11840;DHT22;5979;50.800;4.904;2024-02-26T08:54:37;6.00;99.90
11840;DHT22;5979;50.800;4.904;2024-02-26T08:57:03;6.00;99.90
11840;DHT22;5979;50.800;4.904;2024-02-26T08:59:29;6.00;99.90
11840;DHT22;5979;50.800;4.904;2024-02-26T09:01:55;6.00;99.90
11840;DHT22;5979;50.800;4.904;2024-02-26T09:04:20;6.00;99.90
11840;DHT22;5979;50.800;4.904;2024-02-26T09:06:47;6.00;99.90
11840;DHT22;5979;50.800;4.904;2024-02-26T09:09:12;6.00;99.90
11840;DHT22;5979;50.800;4.904;2024-02-26T09:11:38;6.00;99.90
11840;DHT22;5979;50.800;4.904;2024-02-26T09:14:04;5.90;99.90
11840;DHT22;5979;50.800;4.904;2024-02-26T09:16:30;6.00;99.90
11840;DHT22;5979;50.800;4.904;2024-02-26T09:18:56;6.00;99.90
11840;DHT22;5979;50.800;4.904;2024-02-26T09:21:22;6.00;99.90
11840;DHT22;5979;50.800;4.904;2024-02-26T09:23:50;6.00;99.90
11840;DHT22;5979;50.800;4.904;2024-02-26T09:26:16;6.00;99.90
11840;DHT22;5979;50.800;4.904;2024-02-26T09:28:42;6.00;99.90
11840;DHT22;5979;50.800;4.904;2024-02-26T09:31:08;6.00;99.90
11840;DHT22;5979;50.800;4.904;2024-02-26T09:33:34;6.00;99.90
11840;DHT22;5979;50.800;4.904;2024-02-26T09:36:00;6.00;99.90
11840;DHT22;5979;50.800;4.904;2024-02-26T09:38:27;6.00;99.90
11840;DHT22;5979;50.800;4.904;2024-02-26T09:40:53;6.00;99.90
11840;DHT22;5979;50.800;4.904;2024-02-26T09:43:21;6.00;99.90
11840;DHT22;5979;50.800;4.904;2024-02-26T09:45:49;6.00;99.90
11840;DHT22;5979;50.800;4.904;2024-02-26T09:48:17;6.00;99.90
11840;DHT22;5979;50.800;4.904;2024-02-26T09:50:43;6.10;99.90
11840;DHT22;5979;50.800;4.904;2024-02-26T09:53:11;6.10;99.90
11840;DHT22;5979;50.800;4.904;2024-02-26T09:55:37;6.10;99.90
11840;DHT22;5979;50.800;4.904;2024-02-26T09:58:05;6.10;99.90
11840;DHT22;5979;50.800;4.904;2024-02-26T10:00:31;6.10;99.90
11840;DHT22;5979;50.800;4.904;2024-02-26T10:03:03;6.10;99.90
11840;DHT22;5979;50.800;4.904;2024-02-26T10:05:29;6.10;99.90
11840;DHT22;5979;50.800;4.904;2024-02-26T10:07:56;6.10;99.90
11840;DHT22;5979;50.800;4.904;2024-02-26T10:10:23;6.10;99.90
11840;DHT22;5979;50.800;4.904;2024-02-26T10:12:48;6.10;99.90
11840;DHT22;5979;50.800;4.904;2024-02-26T10:15:14;6.20;99.90
11840;DHT22;5979;50.800;4.904;2024-02-26T10:17:41;6.10;99.90
11840;DHT22;5979;50.800;4.904;2024-02-26T10:20:19;6.10;99.90
11840;DHT22;5979;50.800;4.904;2024-02-26T10:22:49;6.00;99.90
11840;DHT22;5979;50.800;4.904;2024-02-26T10:25:14;6.00;99.90
11840;DHT22;5979;50.800;4.904;2024-02-26T10:27:41;6.10;99.90
11840;DHT22;5979;50.800;4.904;2024-02-26T10:30:17;6.10;99.90
11840;DHT22;5979;50.800;4.904;2024-02-26T10:32:45;6.10;99.90
11840;DHT22;5979;50.800;4.904;2024-02-26T10:35:12;6.10;99.90
11840;DHT22;5979;50.800;4.904;2024-02-26T10:37:40;6.10;99.90
11840;DHT22;5979;50.800;4.904;2024-02-26T10:40:08;6.10;99.90
11840;DHT22;5979;50.800;4.904;2024-02-26T10:42:35;6.10;99.90
11840;DHT22;5979;50.800;4.904;2024-02-26T10:45:00;6.10;99.90
11840;DHT22;5979;50.800;4.904;2024-02-26T10:47:28;6.00;99.90
11840;DHT22;5979;50.800;4.904;2024-02-26T10:49:55;6.10;99.90
11840;DHT22;5979;50.800;4.904;2024-02-26T10:52:23;6.10;99.90
11840;DHT22;5979;50.800;4.904;2024-02-26T10:54:53;6.10;99.90
11840;DHT22;5979;50.800;4.904;2024-02-26T10:57:20;6.00;99.90
11840;DHT22;5979;50.800;4.904;2024-02-26T10:59:48;6.00;99.90
11840;DHT22;5979;50.800;4.904;2024-02-26T11:02:15;6.00;99.90
11840;DHT22;5979;50.800;4.904;2024-02-26T11:04:41;6.00;99.90
11840;DHT22;5979;50.800;4.904;2024-02-26T11:07:09;6.00;99.90
11840;DHT22;5979;50.800;4.904;2024-02-26T11:09:35;6.00;99.90
11840;DHT22;5979;50.800;4.904;2024-02-26T11:12:08;6.10;99.90
11840;DHT22;5979;50.800;4.904;2024-02-26T11:14:40;6.10;99.90
11840;DHT22;5979;50.800;4.904;2024-02-26T11:17:09;6.10;99.90
11840;DHT22;5979;50.800;4.904;2024-02-26T11:19:38;6.10;99.90
11840;DHT22;5979;50.800;4.904;2024-02-26T11:22:04;6.10;99.90
11840;DHT22;5979;50.800;4.904;2024-02-26T11:24:31;6.10;99.90
11840;DHT22;5979;50.800;4.904;2024-02-26T11:27:01;6.10;99.90
11840;DHT22;5979;50.800;4.904;2024-02-26T11:29:33;6.10;99.90
11840;DHT22;5979;50.800;4.904;2024-02-26T11:32:00;6.10;99.90
11840;DHT22;5979;50.800;4.904;2024-02-26T11:34:26;6.10;99.90
11840;DHT22;5979;50.800;4.904;2024-02-26T11:36:52;6.20;99.90
11840;DHT22;5979;50.800;4.904;2024-02-26T11:39:18;6.20;99.90
11840;DHT22;5979;50.800;4.904;2024-02-26T11:41:45;6.30;99.90
11840;DHT22;5979;50.800;4.904;2024-02-26T11:44:10;6.30;99.90
11840;DHT22;5979;50.800;4.904;2024-02-26T11:46:42;6.30;99.90
11840;DHT22;5979;50.800;4.904;2024-02-26T11:51:57;6.40;99.90
11840;DHT22;5979;50.800;4.904;2024-02-26T11:57:43;6.40;99.90
11840;DHT22;5979;50.800;4.904;2024-02-26T12:00:15;6.50;99.90
11840;DHT22;5979;50.800;4.904;2024-02-26T12:02:50;6.50;99.90
11840;DHT22;5979;50.800;4.904;2024-02-26T12:05:23;6.50;99.90
11840;DHT22;5979;50.800;4.904;2024-02-26T12:07:53;6.50;99.90
11840;DHT22;5979;50.800;4.904;2024-02-26T12:10:28;6.50;99.90
11840;DHT22;5979;50.800;4.904;2024-02-26T12:13:02;6.60;99.90
11840;DHT22;5979;50.800;4.904;2024-02-26T12:15:45;6.50;99.90
11840;DHT22;5979;50.800;4.904;2024-02-26T12:18:16;6.40;99.90
11840;DHT22;5979;50.800;4.904;2024-02-26T12:20:42;6.30;99.90
11840;DHT22;5979;50.800;4.904;2024-02-26T12:23:10;6.30;99.90
11840;DHT22;5979;50.800;4.904;2024-02-26T12:25:39;6.30;99.90
11840;DHT22;5979;50.800;4.904;2024-02-26T12:28:05;6.20;99.90
11840;DHT22;5979;50.800;4.904;2024-02-26T12:30:32;6.20;99.90
11840;DHT22;5979;50.800;4.904;2024-02-26T12:32:59;6.20;99.90
11840;DHT22;5979;50.800;4.904;2024-02-26T12:35:27;6.10;99.90
11840;DHT22;5979;50.800;4.904;2024-02-26T12:37:54;6.20;99.90
11840;DHT22;5979;50.800;4.904;2024-02-26T12:40:20;6.20;99.90
11840;DHT22;5979;50.800;4.904;2024-02-26T12:42:46;6.20;99.90
11840;DHT22;5979;50.800;4.904;2024-02-26T12:45:13;6.20;99.90
11840;DHT22;5979;50.800;4.904;2024-02-26T12:47:43;6.30;99.90
11840;DHT22;5979;50.800;4.904;2024-02-26T12:50:09;6.30;99.90
11840;DHT22;5979;50.800;4.904;2024-02-26T12:52:39;6.30;99.90
11840;DHT22;5979;50.800;4.904;2024-02-26T12:55:06;6.40;99.90
11840;DHT22;5979;50.800;4.904;2024-02-26T12:57:38;6.40;99.90
11840;DHT22;5979;50.800;4.904;2024-02-26T13:00:05;6.40;99.90
11840;DHT22;5979;50.800;4.904;2024-02-26T13:02:35;6.40;99.90
11840;DHT22;5979;50.800;4.904;2024-02-26T13:05:02;6.40;99.90
11840;DHT22;5979;50.800;4.904;2024-02-26T13:07:28;6.30;99.90
11840;DHT22;5979;50.800;4.904;2024-02-26T13:09:54;6.30;99.90
11840;DHT22;5979;50.800;4.904;2024-02-26T13:12:20;6.30;99.90
11840;DHT22;5979;50.800;4.904;2024-02-26T13:14:47;6.20;99.90
11840;DHT22;5979;50.800;4.904;2024-02-26T13:17:12;6.10;99.90
11840;DHT22;5979;50.800;4.904;2024-02-26T13:19:49;6.20;99.90
11840;DHT22;5979;50.800;4.904;2024-02-26T13:22:15;6.20;99.90
11840;DHT22;5979;50.800;4.904;2024-02-26T13:24:42;6.10;99.90
11840;DHT22;5979;50.800;4.904;2024-02-26T13:27:08;6.20;99.90
11840;DHT22;5979;50.800;4.904;2024-02-26T13:29:34;6.10;99.90
11840;DHT22;5979;50.800;4.904;2024-02-26T13:31:59;6.10;99.90
11840;DHT22;5979;50.800;4.904;2024-02-26T13:34:26;6.20;99.90
11840;DHT22;5979;50.800;4.904;2024-02-26T13:36:53;6.20;99.90
11840;DHT22;5979;50.800;4.904;2024-02-26T13:39:28;6.10;99.90
11840;DHT22;5979;50.800;4.904;2024-02-26T13:41:54;6.10;99.90
11840;DHT22;5979;50.800;4.904;2024-02-26T13:44:23;6.10;99.90
11840;DHT22;5979;50.800;4.904;2024-02-26T13:46:49;6.10;99.90
11840;DHT22;5979;50.800;4.904;2024-02-26T13:49:15;6.10;99.90
11840;DHT22;5979;50.800;4.904;2024-02-26T13:51:41;6.00;99.90
11840;DHT22;5979;50.800;4.904;2024-02-26T13:54:07;6.00;99.90
11840;DHT22;5979;50.800;4.904;2024-02-26T13:56:33;6.00;99.90
11840;DHT22;5979;50.800;4.904;2024-02-26T13:58:59;6.00;99.90
11840;DHT22;5979;50.800;4.904;2024-02-26T14:01:25;6.10;99.90
11840;DHT22;5979;50.800;4.904;2024-02-26T14:03:51;6.10;99.90
11840;DHT22;5979;50.800;4.904;2024-02-26T14:06:16;6.10;99.90
11840;DHT22;5979;50.800;4.904;2024-02-26T14:08:42;6.10;99.90
11840;DHT22;5979;50.800;4.904;2024-02-26T14:11:08;6.10;99.90
11840;DHT22;5979;50.800;4.904;2024-02-26T14:13:34;6.10;99.90
11840;DHT22;5979;50.800;4.904;2024-02-26T14:15:59;6.10;99.90
11840;DHT22;5979;50.800;4.904;2024-02-26T14:18:25;6.10;99.90
11840;DHT22;5979;50.800;4.904;2024-02-26T14:20:52;6.10;99.90
11840;DHT22;5979;50.800;4.904;2024-02-26T14:23:18;6.10;99.90
11840;DHT22;5979;50.800;4.904;2024-02-26T14:25:43;6.10;99.90
11840;DHT22;5979;50.800;4.904;2024-02-26T14:28:09;6.00;99.90
11840;DHT22;5979;50.800;4.904;2024-02-26T14:30:35;6.00;99.90
11840;DHT22;5979;50.800;4.904;2024-02-26T14:33:00;6.10;99.90
11840;DHT22;5979;50.800;4.904;2024-02-26T14:35:26;6.10;99.90
11840;DHT22;5979;50.800;4.904;2024-02-26T14:37:52;6.10;99.90
11840;DHT22;5979;50.800;4.904;2024-02-26T14:40:17;6.10;99.90
11840;DHT22;5979;50.800;4.904;2024-02-26T14:42:44;6.20;99.90
11840;DHT22;5979;50.800;4.904;2024-02-26T14:45:10;6.20;99.90
11840;DHT22;5979;50.800;4.904;2024-02-26T14:47:36;6.20;99.90
11840;DHT22;5979;50.800;4.904;2024-02-26T14:50:03;6.10;99.90
11840;DHT22;5979;50.800;4.904;2024-02-26T14:52:29;6.20;99.90
11840;DHT22;5979;50.800;4.904;2024-02-26T14:54:54;6.20;99.90
11840;DHT22;5979;50.800;4.904;2024-02-26T14:57:20;6.20;99.90
11840;DHT22;5979;50.800;4.904;2024-02-26T14:59:46;6.20;99.90
11840;DHT22;5979;50.800;4.904;2024-02-26T15:02:11;6.20;99.90
11840;DHT22;5979;50.800;4.904;2024-02-26T15:04:37;6.20;99.90
11840;DHT22;5979;50.800;4.904;2024-02-26T15:07:03;6.20;99.90
11840;DHT22;5979;50.800;4.904;2024-02-26T15:09:29;6.20;99.90
11840;DHT22;5979;50.800;4.904;2024-02-26T15:11:55;6.20;99.90
11840;DHT22;5979;50.800;4.904;2024-02-26T15:14:23;6.20;99.90
11840;DHT22;5979;50.800;4.904;2024-02-26T15:16:48;6.20;99.90
11840;DHT22;5979;50.800;4.904;2024-02-26T15:19:14;6.20;99.90
11840;DHT22;5979;50.800;4.904;2024-02-26T15:21:46;6.20;99.90
11840;DHT22;5979;50.800;4.904;2024-02-26T15:24:12;6.10;99.90
11840;DHT22;5979;50.800;4.904;2024-02-26T15:26:38;6.20;99.90
11840;DHT22;5979;50.800;4.904;2024-02-26T15:29:06;6.20;99.90
11840;DHT22;5979;50.800;4.904;2024-02-26T15:31:34;6.20;99.90
11840;DHT22;5979;50.800;4.904;2024-02-26T15:34:00;6.20;99.90
11840;DHT22;5979;50.800;4.904;2024-02-26T15:36:25;6.30;99.90
11840;DHT22;5979;50.800;4.904;2024-02-26T15:38:51;6.20;99.90
11840;DHT22;5979;50.800;4.904;2024-02-26T15:41:17;6.20;99.90
11840;DHT22;5979;50.800;4.904;2024-02-26T15:43:43;6.20;99.90
11840;DHT22;5979;50.800;4.904;2024-02-26T15:46:08;6.20;99.90
11840;DHT22;5979;50.800;4.904;2024-02-26T15:48:36;6.30;99.90
11840;DHT22;5979;50.800;4.904;2024-02-26T15:51:02;6.20;99.90
11840;DHT22;5979;50.800;4.904;2024-02-26T15:53:28;6.20;99.90
11840;DHT22;5979;50.800;4.904;2024-02-26T15:55:53;6.30;99.90
11840;DHT22;5979;50.800;4.904;2024-02-26T15:58:19;6.30;99.90
11840;DHT22;5979;50.800;4.904;2024-02-26T16:00:45;6.30;99.90
11840;DHT22;5979;50.800;4.904;2024-02-26T16:03:12;6.30;99.90